createdAt,value
2018-07-27T00:00:31.394Z,28.02
2018-07-27T00:01:31.439Z,28.00
2018-07-27T00:02:31.470Z,28.02
2018-07-27T00:03:31.451Z,27.94
2018-07-27T00:04:31.471Z,27.88
2018-07-27T00:05:31.490Z,27.84
2018-07-27T00:06:31.514Z,27.79
2018-07-27T00:07:31.535Z,27.81
2018-07-27T00:08:31.556Z,27.82
2018-07-27T00:09:31.576Z,27.92
2018-07-27T00:10:31.606Z,27.84
2018-07-27T00:11:31.617Z,27.92
2018-07-27T00:12:31.629Z,27.87
2018-07-27T00:13:31.656Z,27.79
2018-07-27T00:14:31.681Z,27.81
2018-07-27T00:15:31.691Z,27.81
2018-07-27T00:16:31.713Z,27.72
2018-07-27T00:17:31.734Z,27.69
2018-07-27T00:18:31.754Z,27.69
2018-07-27T00:19:31.776Z,27.67
2018-07-27T00:20:31.794Z,27.62
2018-07-27T00:21:31.815Z,27.65
2018-07-27T00:22:31.836Z,27.67
2018-07-27T00:23:31.883Z,27.57
2018-07-27T00:24:31.877Z,27.57
2018-07-27T00:25:31.907Z,27.63
2018-07-27T00:26:31.923Z,27.50
2018-07-27T00:27:32.040Z,27.47
2018-07-27T00:28:32.028Z,27.46
2018-07-27T00:29:31.995Z,27.51
2018-07-27T00:30:32.002Z,27.47
2018-07-27T00:31:32.024Z,27.47
2018-07-27T00:32:32.046Z,27.47
2018-07-27T00:33:32.064Z,27.44
2018-07-27T00:34:32.087Z,27.41
2018-07-27T00:35:32.107Z,27.41
2018-07-27T00:36:32.127Z,27.39
2018-07-27T00:37:32.150Z,27.29
2018-07-27T00:38:32.181Z,27.28
2018-07-27T00:39:32.188Z,27.32
2018-07-27T00:40:32.210Z,27.32
2018-07-27T00:41:32.228Z,27.34
2018-07-27T00:42:32.253Z,27.32
2018-07-27T00:43:32.270Z,27.37
2018-07-27T00:44:32.291Z,27.32
2018-07-27T00:45:32.312Z,27.36
2018-07-27T00:46:32.334Z,27.27
2018-07-27T00:47:32.352Z,27.39
2018-07-27T00:48:32.372Z,27.19
2018-07-27T00:49:32.394Z,27.25
2018-07-27T00:50:32.434Z,27.22
2018-07-27T00:51:32.447Z,27.22
2018-07-27T00:52:32.461Z,27.22
2018-07-27T00:53:32.502Z,27.17
2018-07-27T00:54:32.541Z,27.17
2018-07-27T00:55:32.530Z,27.13
2018-07-27T00:56:32.539Z,27.04
2018-07-27T00:57:32.561Z,27.12
2018-07-27T00:58:32.579Z,27.06
2018-07-27T00:59:32.624Z,27.09
2018-07-27T01:00:32.619Z,27.12
2018-07-27T01:01:32.640Z,27.14
2018-07-27T01:02:32.663Z,27.04
2018-07-27T01:03:32.706Z,27.07
2018-07-27T01:04:33.106Z,27.07
2018-07-27T01:05:33.045Z,26.95
2018-07-27T01:06:33.125Z,27.04
2018-07-27T01:07:32.785Z,26.92
2018-07-27T01:08:32.783Z,26.95
2018-07-27T01:09:32.803Z,26.88
2018-07-27T01:10:32.824Z,26.94
2018-07-27T01:11:32.849Z,26.88
2018-07-27T01:12:32.868Z,26.91
2018-07-27T01:13:32.891Z,26.80
2018-07-27T01:14:32.911Z,26.73
2018-07-27T01:15:32.928Z,26.80
2018-07-27T01:16:32.946Z,26.77
2018-07-27T01:17:32.967Z,26.81
2018-07-27T01:18:32.994Z,26.80
2018-07-27T01:19:33.009Z,26.77
2018-07-27T01:20:33.027Z,26.77
2018-07-27T01:21:33.048Z,26.75
2018-07-27T01:22:33.072Z,26.62
2018-07-27T01:23:33.089Z,26.70
2018-07-27T01:24:33.121Z,26.62
2018-07-27T01:25:33.134Z,26.62
2018-07-27T01:26:33.153Z,26.63
2018-07-27T01:27:33.176Z,26.58
2018-07-27T01:28:33.198Z,26.54
2018-07-27T01:29:33.217Z,26.50
2018-07-27T01:30:33.232Z,26.48
2018-07-27T01:31:33.252Z,26.52
2018-07-27T01:32:33.272Z,26.44
2018-07-27T01:33:33.291Z,26.43
2018-07-27T01:34:33.314Z,26.40
2018-07-27T01:35:33.334Z,26.44
2018-07-27T01:36:33.353Z,26.39
2018-07-27T01:37:33.373Z,26.35
2018-07-27T01:38:33.509Z,26.33
2018-07-27T01:39:33.413Z,26.39
2018-07-27T01:40:33.439Z,26.36
2018-07-27T01:41:33.460Z,26.33
2018-07-27T01:42:33.475Z,26.29
2018-07-27T01:43:33.500Z,26.29
2018-07-27T01:44:33.522Z,26.28
2018-07-27T01:45:33.535Z,26.23
2018-07-27T01:46:33.554Z,26.18
2018-07-27T01:47:33.625Z,26.15
2018-07-27T01:48:33.596Z,26.23
2018-07-27T01:50:18.049Z,26.12
2018-07-27T01:52:18.086Z,26.12
2018-07-27T01:53:18.111Z,26.07
2018-07-27T01:54:18.128Z,26.09
2018-07-27T01:55:18.149Z,25.94
2018-07-27T01:56:18.169Z,25.95
2018-07-27T01:57:18.191Z,25.97
2018-07-27T01:58:18.208Z,25.95
2018-07-27T01:59:18.224Z,25.90
2018-07-27T02:00:18.245Z,25.98
2018-07-27T02:01:18.269Z,25.92
2018-07-27T02:02:18.290Z,25.90
2018-07-27T02:03:18.302Z,25.91
2018-07-27T02:04:18.321Z,25.92
2018-07-27T02:05:18.338Z,25.85
2018-07-27T02:06:18.357Z,25.80
2018-07-27T02:07:18.380Z,25.85
2018-07-27T02:08:18.395Z,25.80
2018-07-27T02:09:18.419Z,25.80
2018-07-27T02:10:18.542Z,25.79
2018-07-27T02:11:18.605Z,25.85
2018-07-27T02:12:18.491Z,25.90
2018-07-27T02:13:19.159Z,25.90
2018-07-27T02:14:18.582Z,25.79
2018-07-27T02:15:18.533Z,25.85
2018-07-27T02:16:18.544Z,25.79
2018-07-27T02:17:18.566Z,25.80
2018-07-27T02:18:18.585Z,25.80
2018-07-27T02:19:18.601Z,25.76
2018-07-27T02:20:18.621Z,25.76
2018-07-27T02:21:18.642Z,25.72
2018-07-27T02:22:18.662Z,25.75
2018-07-27T02:23:18.675Z,25.61
2018-07-27T02:24:18.695Z,25.62
2018-07-27T02:25:18.712Z,25.57
2018-07-27T02:26:18.731Z,25.55
2018-07-27T02:27:19.620Z,25.60
2018-07-27T02:28:18.769Z,25.60
2018-07-27T02:29:18.789Z,25.51
2018-07-27T02:30:18.809Z,25.51
2018-07-27T02:31:18.823Z,25.50
2018-07-27T02:32:18.845Z,25.45
2018-07-27T02:33:18.864Z,25.51
2018-07-27T02:34:18.876Z,25.47
2018-07-27T02:35:18.897Z,25.46
2018-07-27T02:36:18.917Z,25.62
2018-07-27T02:37:18.939Z,25.52
2018-07-27T02:38:18.955Z,25.50
2018-07-27T02:39:18.973Z,25.54
2018-07-27T02:40:19.005Z,25.62
2018-07-27T02:41:19.014Z,25.47
2018-07-27T02:42:19.025Z,25.54
2018-07-27T02:43:19.045Z,25.46
2018-07-27T02:46:19.576Z,25.47
2018-07-27T02:47:19.114Z,25.46
2018-07-27T02:48:19.134Z,25.45
2018-07-27T02:49:19.154Z,25.40
2018-07-27T02:50:19.178Z,25.45
2018-07-27T02:51:19.226Z,25.39
2018-07-27T02:52:19.211Z,25.27
2018-07-27T02:53:19.227Z,25.23
2018-07-27T02:54:19.247Z,25.18
2018-07-27T02:55:19.263Z,25.18
2018-07-27T02:56:19.290Z,25.21
2018-07-27T02:57:19.302Z,25.14
2018-07-27T02:58:19.326Z,25.17
2018-07-27T02:59:19.334Z,25.17
2018-07-27T03:00:19.366Z,25.15
2018-07-27T03:01:19.376Z,25.15
2018-07-27T03:02:19.390Z,25.14
2018-07-27T03:03:19.410Z,25.08
2018-07-27T03:04:19.426Z,25.09
2018-07-27T03:05:19.445Z,25.06
2018-07-27T03:06:19.473Z,25.08
2018-07-27T03:07:19.479Z,25.05
2018-07-27T03:08:19.502Z,25.10
2018-07-27T03:09:19.565Z,25.08
2018-07-27T03:10:19.534Z,25.10
2018-07-27T03:11:19.551Z,25.06
2018-07-27T03:12:19.568Z,25.06
2018-07-27T03:13:19.589Z,25.06
2018-07-27T03:14:19.606Z,25.13
2018-07-27T03:15:19.653Z,25.18
2018-07-27T03:16:19.644Z,25.13
2018-07-27T03:17:19.761Z,25.21
2018-07-27T03:18:19.686Z,25.18
2018-07-27T03:19:19.700Z,25.20
2018-07-27T03:20:19.736Z,25.17
2018-07-27T03:21:19.749Z,25.35
2018-07-27T03:22:19.785Z,25.27
2018-07-27T03:23:19.771Z,25.43
2018-07-27T03:24:19.786Z,25.28
2018-07-27T03:25:19.805Z,25.28
2018-07-27T03:26:19.826Z,25.32
2018-07-27T03:27:19.844Z,25.36
2018-07-27T03:28:19.858Z,25.30
2018-07-27T03:29:19.876Z,25.27
2018-07-27T03:30:19.915Z,25.25
2018-07-27T03:31:19.915Z,25.21
2018-07-27T03:32:19.933Z,25.18
2018-07-27T03:33:19.952Z,25.20
2018-07-27T03:34:19.975Z,25.21
2018-07-27T03:35:20.003Z,25.18
2018-07-27T03:36:20.003Z,25.20
2018-07-27T03:37:20.024Z,25.06
2018-07-27T03:38:20.079Z,25.06
2018-07-27T03:39:20.058Z,25.10
2018-07-27T03:40:20.079Z,25.09
2018-07-27T03:41:20.100Z,25.06
2018-07-27T03:42:20.115Z,25.02
2018-07-27T03:43:20.167Z,25.02
2018-07-27T03:44:20.147Z,25.00
2018-07-27T03:45:20.165Z,24.91
2018-07-27T03:46:20.187Z,24.99
2018-07-27T03:47:20.212Z,24.95
2018-07-27T03:48:20.229Z,24.91
2018-07-27T03:49:20.613Z,24.85
2018-07-27T03:51:20.278Z,24.85
2018-07-27T03:52:20.315Z,24.83
2018-07-27T03:53:20.309Z,24.85
2018-07-27T03:54:20.356Z,24.85
2018-07-27T03:55:20.344Z,24.80
2018-07-27T03:56:20.362Z,24.80
2018-07-27T03:57:20.380Z,24.83
2018-07-27T03:58:20.400Z,24.87
2018-07-27T03:59:20.443Z,24.78
2018-07-27T04:00:20.447Z,24.85
2018-07-27T04:01:20.452Z,24.81
2018-07-27T04:02:20.532Z,24.80
2018-07-27T04:03:20.500Z,24.80
2018-07-27T04:04:20.509Z,24.85
2018-07-27T04:05:20.524Z,24.84
2018-07-27T04:06:20.565Z,24.80
2018-07-27T04:07:20.626Z,24.80
2018-07-27T04:08:20.583Z,24.78
2018-07-27T04:09:20.616Z,24.84
2018-07-27T04:10:20.615Z,24.81
2018-07-27T04:11:20.629Z,24.80
2018-07-27T04:12:20.649Z,24.84
2018-07-27T04:13:20.676Z,24.91
2018-07-27T04:14:20.687Z,24.93
2018-07-27T04:15:20.762Z,24.96
2018-07-27T04:16:20.738Z,24.93
2018-07-27T04:17:20.741Z,24.96
2018-07-27T04:18:20.756Z,24.95
2018-07-27T04:19:20.776Z,25.00
2018-07-27T04:20:20.797Z,24.95
2018-07-27T04:21:20.816Z,24.93
2018-07-27T04:22:20.836Z,25.00
2018-07-27T04:24:20.964Z,24.96
2018-07-27T04:25:21.051Z,25.00
2018-07-27T04:26:20.918Z,24.96
2018-07-27T04:27:20.936Z,25.02
2018-07-27T04:28:20.936Z,24.96
2018-07-27T04:29:20.956Z,25.00
2018-07-27T04:30:20.973Z,24.99
2018-07-27T04:31:20.990Z,24.96
2018-07-27T04:32:21.048Z,24.99
2018-07-27T04:33:21.027Z,25.02
2018-07-27T04:34:21.043Z,25.02
2018-07-27T04:35:21.061Z,24.96
2018-07-27T04:36:21.087Z,24.88
2018-07-27T04:37:21.175Z,24.88
2018-07-27T04:38:21.119Z,24.90
2018-07-27T04:39:21.132Z,24.87
2018-07-27T04:40:21.148Z,24.88
2018-07-27T04:41:21.176Z,25.03
2018-07-27T04:42:21.185Z,24.95
2018-07-27T04:43:21.203Z,24.96
2018-07-27T04:44:21.228Z,25.05
2018-07-27T04:45:21.255Z,25.00
2018-07-27T04:46:21.260Z,25.05
2018-07-27T04:47:21.338Z,25.03
2018-07-27T04:48:21.308Z,25.06
2018-07-27T04:49:22.412Z,25.03
2018-07-27T04:50:21.339Z,25.05
2018-07-27T04:51:21.346Z,25.03
2018-07-27T04:53:21.420Z,25.20
2018-07-27T04:54:21.404Z,25.28
2018-07-27T04:55:21.428Z,25.30
2018-07-27T04:56:21.780Z,25.39
2018-07-27T04:57:21.573Z,25.51
2018-07-27T04:58:21.603Z,25.46
2018-07-27T04:59:21.896Z,25.43
2018-07-27T05:00:22.072Z,25.50
2018-07-27T05:01:21.525Z,25.39
2018-07-27T05:02:21.544Z,25.40
2018-07-27T05:03:21.562Z,25.35
2018-07-27T05:04:21.580Z,25.24
2018-07-27T05:05:21.620Z,25.32
2018-07-27T05:06:21.619Z,25.32
2018-07-27T05:07:21.638Z,25.28
2018-07-27T05:08:21.652Z,25.40
2018-07-27T05:09:21.669Z,25.45
2018-07-27T05:10:21.696Z,25.45
2018-07-27T05:11:21.712Z,25.50
2018-07-27T05:12:21.722Z,25.46
2018-07-27T05:13:21.733Z,25.46
2018-07-27T05:14:21.750Z,25.46
2018-07-27T05:15:21.770Z,25.50
2018-07-27T05:16:21.785Z,25.50
2018-07-27T05:17:21.803Z,25.60
2018-07-27T05:18:21.884Z,25.58
2018-07-27T05:19:21.843Z,25.57
2018-07-27T05:20:21.857Z,25.57
2018-07-27T05:21:21.878Z,25.57
2018-07-27T05:22:21.899Z,25.72
2018-07-27T05:23:21.911Z,25.65
2018-07-27T05:24:21.934Z,25.80
2018-07-27T05:25:22.125Z,25.77
2018-07-27T05:26:21.968Z,25.83
2018-07-27T05:27:21.983Z,25.80
2018-07-27T05:28:22.005Z,25.90
2018-07-27T05:29:22.020Z,25.80
2018-07-27T05:30:22.041Z,25.82
2018-07-27T05:31:22.189Z,25.90
2018-07-27T05:32:22.522Z,25.91
2018-07-27T05:34:22.151Z,26.09
2018-07-27T05:35:22.130Z,25.92
2018-07-27T05:36:22.146Z,26.06
2018-07-27T05:37:22.166Z,25.92
2018-07-27T05:38:22.184Z,26.05
2018-07-27T05:39:22.199Z,26.10
2018-07-27T05:40:22.239Z,26.07
2018-07-27T05:41:22.243Z,26.09
2018-07-27T05:42:22.258Z,26.12
2018-07-27T05:43:22.274Z,26.10
2018-07-27T05:44:22.298Z,26.10
2018-07-27T05:45:22.311Z,26.15
2018-07-27T05:46:22.327Z,26.20
2018-07-27T05:47:22.345Z,26.13
2018-07-27T05:48:22.372Z,26.23
2018-07-27T05:49:22.394Z,26.17
2018-07-27T05:50:22.404Z,26.26
2018-07-27T05:51:22.421Z,26.29
2018-07-27T05:52:22.437Z,26.32
2018-07-27T05:53:22.454Z,26.39
2018-07-27T05:54:22.474Z,26.40
2018-07-27T05:55:22.492Z,26.45
2018-07-27T05:56:22.632Z,26.45
2018-07-27T05:57:22.535Z,26.60
2018-07-27T05:58:22.546Z,26.58
2018-07-27T05:59:22.585Z,26.60
2018-07-27T06:00:22.607Z,26.63
2018-07-27T06:01:22.614Z,26.69
2018-07-27T06:02:22.638Z,26.73
2018-07-27T06:03:23.068Z,26.69
2018-07-27T06:04:22.660Z,26.81
2018-07-27T06:05:22.682Z,26.81
2018-07-27T06:06:22.749Z,26.80
2018-07-27T06:07:22.739Z,26.80
2018-07-27T06:08:22.736Z,26.73
2018-07-27T06:09:22.745Z,26.88
2018-07-27T06:10:24.173Z,26.87
2018-07-27T06:11:22.785Z,26.87
2018-07-27T06:12:23.053Z,26.88
2018-07-27T06:13:22.826Z,26.89
2018-07-27T06:14:22.893Z,26.92
2018-07-27T06:15:22.860Z,26.97
2018-07-27T06:16:22.872Z,27.00
2018-07-27T06:17:24.773Z,26.87
2018-07-27T06:18:23.168Z,26.88
2018-07-27T06:19:22.931Z,26.89
2018-07-27T06:20:22.955Z,26.94
2018-07-27T06:21:23.599Z,26.85
2018-07-27T06:22:23.038Z,26.92
2018-07-27T06:23:23.005Z,26.95
2018-07-27T06:24:23.088Z,27.07
2018-07-27T06:25:23.053Z,27.03
2018-07-27T06:26:23.057Z,27.04
2018-07-27T06:27:23.076Z,27.10
2018-07-27T06:28:23.098Z,27.10
2018-07-27T06:29:23.122Z,27.13
2018-07-27T06:30:23.167Z,27.10
2018-07-27T06:31:23.149Z,27.10
2018-07-27T06:32:23.175Z,27.19
2018-07-27T06:33:23.196Z,27.09
2018-07-27T06:34:23.211Z,27.19
2018-07-27T06:35:23.232Z,27.19
2018-07-27T06:36:23.242Z,27.13
2018-07-27T06:37:23.362Z,27.32
2018-07-27T06:38:23.290Z,27.22
2018-07-27T06:39:23.305Z,27.36
2018-07-27T06:40:23.499Z,27.37
2018-07-27T06:41:23.367Z,27.40
2018-07-27T06:42:23.355Z,27.40
2018-07-27T06:43:23.377Z,27.50
2018-07-27T06:44:23.402Z,27.44
2018-07-27T06:45:23.702Z,27.51
2018-07-27T06:46:23.464Z,27.54
2018-07-27T06:47:23.450Z,27.62
2018-07-27T06:48:23.476Z,27.60
2018-07-27T06:49:23.494Z,27.66
2018-07-27T06:50:23.508Z,27.69
2018-07-27T06:51:23.523Z,27.66
2018-07-27T06:52:23.578Z,27.77
2018-07-27T06:53:23.561Z,27.85
2018-07-27T06:54:23.580Z,27.84
2018-07-27T06:55:23.596Z,27.81
2018-07-27T06:56:23.618Z,27.82
2018-07-27T06:57:23.648Z,27.85
2018-07-27T06:58:23.655Z,27.84
2018-07-27T06:59:23.670Z,27.88
2018-07-27T07:00:24.000Z,27.93
2018-07-27T07:01:23.715Z,27.94
2018-07-27T07:02:23.728Z,27.94
2018-07-27T07:03:23.812Z,27.96
2018-07-27T07:04:23.763Z,28.06
2018-07-27T07:05:23.794Z,28.09
2018-07-27T07:06:23.819Z,28.03
2018-07-27T07:07:23.820Z,28.14
2018-07-27T07:08:23.864Z,28.14
2018-07-27T07:09:23.870Z,28.18
2018-07-27T07:10:24.083Z,28.25
2018-07-27T07:11:23.902Z,28.18
2018-07-27T07:12:23.921Z,28.30
2018-07-27T07:13:23.941Z,28.25
2018-07-27T07:14:24.379Z,28.36
2018-07-27T07:15:24.022Z,28.37
2018-07-27T07:16:24.015Z,28.49
2018-07-27T07:17:24.012Z,28.48
2018-07-27T07:18:24.030Z,28.51
2018-07-27T07:19:24.050Z,28.62
2018-07-27T07:20:24.067Z,28.67
2018-07-27T07:21:24.086Z,28.62
2018-07-27T07:22:24.108Z,28.62
2018-07-27T07:23:24.214Z,28.61
2018-07-27T07:24:24.145Z,28.67
2018-07-27T07:25:24.304Z,28.64
2018-07-27T07:26:24.182Z,28.73
2018-07-27T07:27:24.208Z,28.67
2018-07-27T07:28:24.478Z,28.76
2018-07-27T07:29:24.247Z,28.73
2018-07-27T07:30:24.258Z,28.70
2018-07-27T07:31:24.290Z,28.77
2018-07-27T07:32:24.297Z,28.81
2018-07-27T07:34:24.350Z,28.88
2018-07-27T07:35:24.356Z,28.90
2018-07-27T07:36:24.368Z,28.98
2018-07-27T07:37:24.391Z,28.96
2018-07-27T07:38:24.411Z,29.05
2018-07-27T07:39:24.438Z,29.12
2018-07-27T07:40:24.449Z,29.11
2018-07-27T07:41:24.468Z,29.08
2018-07-27T07:42:24.543Z,29.12
2018-07-27T07:43:24.506Z,29.15
2018-07-27T07:44:24.521Z,29.15
2018-07-27T07:46:24.777Z,29.11
2018-07-27T07:47:25.169Z,29.26
2018-07-27T07:48:24.641Z,29.26
2018-07-27T07:49:24.653Z,29.34
2018-07-27T07:50:25.072Z,29.36
2018-07-27T07:51:24.666Z,29.42
2018-07-27T07:52:24.674Z,29.37
2018-07-27T07:53:24.696Z,29.41
2018-07-27T07:54:24.725Z,29.46
2018-07-27T07:55:24.732Z,29.43
2018-07-27T07:56:24.771Z,29.39
2018-07-27T07:58:24.792Z,29.43
2018-07-27T07:59:24.812Z,29.58
2018-07-27T08:00:24.839Z,29.55
2018-07-27T08:01:24.851Z,29.61
2018-07-27T08:02:24.868Z,29.64
2018-07-27T08:03:24.908Z,29.73
2018-07-27T08:04:24.961Z,29.79
2018-07-27T08:05:24.981Z,29.74
2018-07-27T08:06:24.949Z,29.87
2018-07-27T08:07:24.969Z,29.86
2018-07-27T08:08:24.990Z,29.90
2018-07-27T08:09:25.007Z,29.97
2018-07-27T08:10:25.045Z,29.89
2018-07-27T08:11:25.041Z,29.87
2018-07-27T08:12:25.063Z,29.85
2018-07-27T08:14:25.400Z,30.00
2018-07-27T08:17:25.562Z,30.11
2018-07-27T08:18:25.180Z,30.13
2018-07-27T08:19:25.200Z,30.20
2018-07-27T08:20:25.222Z,30.34
2018-07-27T08:21:25.252Z,30.31
2018-07-27T08:22:25.284Z,30.32
2018-07-27T08:23:25.282Z,30.35
2018-07-27T08:24:25.296Z,30.39
2018-07-27T08:25:25.316Z,30.42
2018-07-27T08:26:25.336Z,30.45
2018-07-27T08:27:25.826Z,30.49
2018-07-27T08:28:25.374Z,30.57
2018-07-27T08:29:25.398Z,30.54
2018-07-27T08:30:25.415Z,30.62
2018-07-27T08:31:25.434Z,30.67
2018-07-27T08:32:25.454Z,30.67
2018-07-27T08:33:25.478Z,30.75
2018-07-27T08:34:25.509Z,30.69
2018-07-27T08:35:25.513Z,30.72
2018-07-27T08:36:25.537Z,30.79
2018-07-27T08:37:25.567Z,30.83
2018-07-27T08:38:25.574Z,30.84
2018-07-27T08:39:25.616Z,30.79
2018-07-27T08:40:25.629Z,30.91
2018-07-27T08:41:25.639Z,30.89
2018-07-27T08:42:26.011Z,30.77
2018-07-27T08:43:25.672Z,30.88
2018-07-27T08:44:25.706Z,30.92
2018-07-27T08:45:25.716Z,30.99
2018-07-27T08:46:25.742Z,31.02
2018-07-27T08:47:25.754Z,31.02
2018-07-27T08:48:25.820Z,31.07
2018-07-27T08:49:25.791Z,31.17
2018-07-27T08:50:25.816Z,31.25
2018-07-27T08:51:25.847Z,31.31
2018-07-27T08:52:25.859Z,31.32
2018-07-27T08:53:25.879Z,31.28
2018-07-27T08:54:25.897Z,31.36
2018-07-27T08:55:25.965Z,31.41
2018-07-27T08:56:26.276Z,31.54
2018-07-27T08:57:25.951Z,31.51
2018-07-27T08:58:26.018Z,31.53
2018-07-27T08:59:25.990Z,31.61
2018-07-27T09:00:26.011Z,31.63
2018-07-27T09:01:26.062Z,31.54
2018-07-27T09:02:26.091Z,31.56
2018-07-27T09:03:26.077Z,31.65
2018-07-27T09:04:26.097Z,31.61
2018-07-27T09:05:26.124Z,31.57
2018-07-27T09:06:26.580Z,31.61
2018-07-27T09:07:26.152Z,31.69
2018-07-27T09:08:26.172Z,31.62
2018-07-27T09:09:26.196Z,31.50
2018-07-27T09:10:26.216Z,31.58
2018-07-27T09:11:26.237Z,31.66
2018-07-27T09:12:26.256Z,31.68
2018-07-27T09:13:26.275Z,31.73
2018-07-27T09:14:26.294Z,31.81
2018-07-27T09:15:26.320Z,31.86
2018-07-27T09:16:26.333Z,31.88
2018-07-27T09:17:26.401Z,31.96
2018-07-27T09:18:26.374Z,31.96
2018-07-27T09:19:26.400Z,32.04
2018-07-27T09:20:26.414Z,32.03
2018-07-27T09:21:26.459Z,32.15
2018-07-27T09:22:26.457Z,32.11
2018-07-27T09:23:26.482Z,32.15
2018-07-27T09:24:26.671Z,32.03
2018-07-27T09:25:26.602Z,32.10
2018-07-27T09:26:26.548Z,31.99
2018-07-27T09:27:26.561Z,32.03
2018-07-27T09:28:26.587Z,32.13
2018-07-27T09:29:26.646Z,32.22
2018-07-27T09:30:26.640Z,32.11
2018-07-27T09:31:26.984Z,32.21
2018-07-27T09:32:26.713Z,32.22
2018-07-27T09:33:26.683Z,32.22
2018-07-27T09:34:26.700Z,32.13
2018-07-27T09:35:26.742Z,32.13
2018-07-27T09:36:26.756Z,32.26
2018-07-27T09:37:26.767Z,32.29
2018-07-27T09:38:26.788Z,32.25
2018-07-27T09:39:26.809Z,32.19
2018-07-27T09:40:27.483Z,32.33
2018-07-27T09:41:26.858Z,32.41
2018-07-27T09:42:26.868Z,32.32
2018-07-27T09:43:26.883Z,32.35
2018-07-27T09:44:26.905Z,32.30
2018-07-27T09:45:26.927Z,32.40
2018-07-27T09:46:26.974Z,32.48
2018-07-27T09:47:26.996Z,32.50
2018-07-27T09:48:27.003Z,32.48
2018-07-27T09:49:27.005Z,32.51
2018-07-27T09:50:27.034Z,32.51
2018-07-27T09:51:27.049Z,32.45
2018-07-27T09:52:27.070Z,32.50
2018-07-27T09:53:27.091Z,32.55
2018-07-27T09:54:27.112Z,32.48
2018-07-27T09:55:27.131Z,32.57
2018-07-27T09:56:27.154Z,32.70
2018-07-27T09:57:27.203Z,32.60
2018-07-27T09:58:27.193Z,32.67
2018-07-27T09:59:27.222Z,32.75
2018-07-27T10:00:27.324Z,32.81
2018-07-27T10:01:27.715Z,32.84
2018-07-27T10:03:27.357Z,32.84
2018-07-27T10:04:27.322Z,32.69
2018-07-27T10:05:27.348Z,32.59
2018-07-27T10:06:27.585Z,32.75
2018-07-27T10:07:27.397Z,32.81
2018-07-27T10:08:27.398Z,32.84
2018-07-27T10:09:27.421Z,32.85
2018-07-27T10:10:27.441Z,32.92
2018-07-27T10:11:27.459Z,32.93
2018-07-27T10:12:27.485Z,32.89
2018-07-27T10:13:27.505Z,33.01
2018-07-27T10:14:27.529Z,33.00
2018-07-27T10:15:27.554Z,32.97
2018-07-27T10:16:27.613Z,33.00
2018-07-27T10:17:27.587Z,33.03
2018-07-27T10:18:27.621Z,33.14
2018-07-27T10:19:27.638Z,33.12
2018-07-27T10:20:27.667Z,33.14
2018-07-27T10:21:27.692Z,33.09
2018-07-27T10:22:27.697Z,33.31
2018-07-27T10:23:27.713Z,33.32
2018-07-27T10:24:27.737Z,33.28
2018-07-27T10:25:27.755Z,33.15
2018-07-27T10:26:27.774Z,33.28
2018-07-27T10:27:27.800Z,33.14
2018-07-27T10:28:27.818Z,33.07
2018-07-27T10:29:27.834Z,33.00
2018-07-27T10:30:27.857Z,33.00
2018-07-27T10:31:27.878Z,33.07
2018-07-27T10:32:27.899Z,33.12
2018-07-27T10:33:27.927Z,33.35
2018-07-27T10:34:27.943Z,33.31
2018-07-27T10:35:27.971Z,33.21
2018-07-27T10:36:28.296Z,33.37
2018-07-27T10:37:28.005Z,33.37
2018-07-27T10:38:28.049Z,33.41
2018-07-27T10:39:28.045Z,33.37
2018-07-27T10:40:28.071Z,33.35
2018-07-27T10:41:28.093Z,33.38
2018-07-27T10:42:28.108Z,33.39
2018-07-27T10:43:28.137Z,33.39
2018-07-27T10:44:28.148Z,33.37
2018-07-27T10:45:28.168Z,33.53
2018-07-27T10:46:28.195Z,33.50
2018-07-27T10:47:28.247Z,33.56
2018-07-27T10:48:28.233Z,33.60
2018-07-27T10:49:29.061Z,33.59
2018-07-27T10:50:28.280Z,33.57
2018-07-27T10:51:28.298Z,33.54
2018-07-27T10:52:28.319Z,33.29
2018-07-27T10:53:28.376Z,33.32
2018-07-27T10:54:28.362Z,33.41
2018-07-27T10:55:28.386Z,33.59
2018-07-27T10:56:28.474Z,33.60
2018-07-27T10:57:28.428Z,33.68
2018-07-27T10:58:28.443Z,33.79
2018-07-27T10:59:28.466Z,33.90
2018-07-27T11:00:28.491Z,33.90
2018-07-27T11:01:28.512Z,34.00
2018-07-27T11:02:28.565Z,34.06
2018-07-27T11:03:28.549Z,34.09
2018-07-27T11:04:28.591Z,34.03
2018-07-27T11:05:28.594Z,34.03
2018-07-27T11:06:28.619Z,33.98
2018-07-27T11:07:28.637Z,33.98
2018-07-27T11:08:28.660Z,34.06
2018-07-27T11:09:28.702Z,34.00
2018-07-27T11:10:28.799Z,33.97
2018-07-27T11:11:28.783Z,33.90
2018-07-27T11:12:28.780Z,33.88
2018-07-27T11:13:28.825Z,33.93
2018-07-27T11:14:28.793Z,33.79
2018-07-27T11:15:28.805Z,33.86
2018-07-27T11:16:28.881Z,33.90
2018-07-27T11:17:28.951Z,33.98
2018-07-27T11:18:28.882Z,33.98
2018-07-27T11:19:28.904Z,33.95
2018-07-27T11:20:28.909Z,34.10
2018-07-27T11:21:28.937Z,34.16
2018-07-27T11:22:28.947Z,34.28
2018-07-27T11:23:28.967Z,34.28
2018-07-27T11:24:28.997Z,34.32
2018-07-27T11:25:29.024Z,34.28
2018-07-27T11:26:29.035Z,34.35
2018-07-27T11:27:29.053Z,34.42
2018-07-27T11:28:29.093Z,34.58
2018-07-27T11:29:29.101Z,34.49
2018-07-27T11:30:29.122Z,34.65
2018-07-27T11:31:29.146Z,34.58
2018-07-27T11:32:29.164Z,34.35
2018-07-27T11:33:29.191Z,34.24
2018-07-27T11:34:29.203Z,34.28
2018-07-27T11:35:29.238Z,34.35
2018-07-27T11:36:29.250Z,34.37
2018-07-27T11:37:29.307Z,34.53
2018-07-27T11:38:29.290Z,34.50
2018-07-27T11:39:29.309Z,34.50
2018-07-27T11:40:29.331Z,34.34
2018-07-27T11:41:29.356Z,34.24
2018-07-27T11:42:29.384Z,34.09
2018-07-27T11:43:29.406Z,34.00
2018-07-27T11:44:29.893Z,34.13
2018-07-27T11:45:30.811Z,34.31
2018-07-27T11:46:29.474Z,34.46
2018-07-27T11:47:29.563Z,34.43
2018-07-27T11:48:29.990Z,34.56
2018-07-27T11:49:29.542Z,34.59
2018-07-27T11:50:29.565Z,34.59
2018-07-27T11:51:29.569Z,34.56
2018-07-27T11:52:29.588Z,34.58
2018-07-27T11:53:29.609Z,34.66
2018-07-27T11:54:29.634Z,34.62
2018-07-27T11:55:29.665Z,34.65
2018-07-27T11:56:29.676Z,34.64
2018-07-27T11:57:29.695Z,34.66
2018-07-27T11:58:29.847Z,34.73
2018-07-27T11:59:29.744Z,34.77
2018-07-27T12:00:29.761Z,34.87
2018-07-27T12:01:29.787Z,34.91
2018-07-27T12:02:29.804Z,34.96
2018-07-27T12:03:29.832Z,35.10
2018-07-27T12:04:29.849Z,35.03
2018-07-27T12:05:29.883Z,35.11
2018-07-27T12:06:29.895Z,35.09
2018-07-27T12:07:29.916Z,35.11
2018-07-27T12:08:29.939Z,34.99
2018-07-27T12:09:29.955Z,34.85
2018-07-27T12:10:29.978Z,34.84
2018-07-27T12:11:29.997Z,34.97
2018-07-27T12:12:30.018Z,35.02
2018-07-27T12:13:30.042Z,35.03
2018-07-27T12:14:30.174Z,35.06
2018-07-27T12:15:30.085Z,35.03
2018-07-27T12:16:30.123Z,35.06
2018-07-27T12:17:30.129Z,35.06
2018-07-27T12:18:30.158Z,35.16
2018-07-27T12:19:30.187Z,35.14
2018-07-27T12:21:30.463Z,34.82
2018-07-27T12:22:30.507Z,34.87
2018-07-27T12:23:30.286Z,34.94
2018-07-27T12:24:30.278Z,34.88
2018-07-27T12:25:30.301Z,34.97
2018-07-27T12:26:30.325Z,34.84
2018-07-27T12:27:30.347Z,34.81
2018-07-27T12:28:30.369Z,34.92
2018-07-27T12:29:30.393Z,35.14
2018-07-27T12:30:30.411Z,35.23
2018-07-27T12:31:30.437Z,35.26
2018-07-27T12:32:30.456Z,35.16
2018-07-27T12:33:30.477Z,35.26
2018-07-27T12:34:30.498Z,35.38
2018-07-27T12:35:30.523Z,35.41
2018-07-27T12:36:30.542Z,35.52
2018-07-27T12:37:30.565Z,35.63
2018-07-27T12:38:30.586Z,35.71
2018-07-27T12:39:30.627Z,35.97
2018-07-27T12:40:30.630Z,36.05
2018-07-27T12:41:30.654Z,36.16
2018-07-27T12:42:30.678Z,36.23
2018-07-27T12:43:30.696Z,36.34
2018-07-27T12:44:30.719Z,36.49
2018-07-27T12:45:30.747Z,36.56
2018-07-27T12:46:30.763Z,36.54
2018-07-27T12:47:30.786Z,36.66
2018-07-27T12:48:30.808Z,36.69
2018-07-27T12:49:30.839Z,36.68
2018-07-27T12:50:30.853Z,36.71
2018-07-27T12:51:30.885Z,36.66
2018-07-27T12:52:30.895Z,36.71
2018-07-27T12:53:30.926Z,36.66
2018-07-27T12:54:31.149Z,36.64
2018-07-27T12:55:31.061Z,36.54
2018-07-27T12:56:30.985Z,36.31
2018-07-27T12:57:31.063Z,36.31
2018-07-27T12:58:31.032Z,36.28
2018-07-27T12:59:31.095Z,36.32
2018-07-27T13:00:31.078Z,36.51
2018-07-27T13:01:31.103Z,36.56
2018-07-27T13:02:31.127Z,36.80
2018-07-27T13:03:31.154Z,36.78
2018-07-27T13:04:31.180Z,36.59
2018-07-27T13:05:31.222Z,36.56
2018-07-27T13:06:31.227Z,36.46
2018-07-27T13:07:31.251Z,36.49
2018-07-27T13:08:31.284Z,36.43